createdAt,value
2018-04-17T09:23:33.266Z,100
2018-04-17T09:24:42.079Z,100
2018-04-17T09:25:50.893Z,100
2018-04-17T09:26:59.985Z,100
2018-04-17T09:28:08.800Z,100
2018-04-17T09:29:17.646Z,105
2018-04-17T09:30:26.443Z,105
2018-04-17T09:31:35.276Z,100
2018-04-17T09:32:44.089Z,100
2018-04-17T09:33:52.913Z,100
2018-04-17T09:35:01.725Z,100
2018-04-17T09:36:10.560Z,100
2018-04-17T09:37:19.383Z,100
2018-04-17T09:38:28.471Z,100
2018-04-17T09:39:37.295Z,100
2018-04-17T09:40:46.112Z,100
2018-04-17T09:41:54.940Z,100
2018-04-17T09:43:03.756Z,100
2018-04-17T09:44:12.620Z,100
2018-04-17T09:45:21.742Z,100
2018-04-17T09:46:30.581Z,100
2018-04-17T09:47:39.464Z,100
2018-04-17T09:48:48.286Z,100
2018-04-17T09:49:57.162Z,100
2018-04-17T09:51:05.997Z,100
2018-04-17T09:52:14.897Z,100
2018-04-17T09:53:23.826Z,100
2018-04-17T09:54:32.926Z,100
2018-04-17T09:55:42.086Z,100
2018-04-17T09:56:50.935Z,100
2018-04-17T09:57:59.784Z,100
2018-04-17T09:59:08.649Z,100
2018-04-17T10:00:17.484Z,100
2018-04-17T10:01:26.327Z,100
2018-04-17T10:02:35.173Z,100
2018-04-17T10:03:44.013Z,100
2018-04-17T10:04:52.844Z,100
2018-04-17T10:06:01.684Z,100
2018-04-17T10:07:10.530Z,100
2018-04-17T10:08:19.372Z,100
2018-04-17T10:09:28.213Z,100
2018-04-17T10:10:37.046Z,100
2018-04-17T10:11:45.887Z,100
2018-04-17T10:12:54.720Z,100
2018-04-17T10:14:03.565Z,100
2018-04-17T10:15:12.396Z,100
2018-04-17T10:16:21.247Z,100
2018-04-17T10:17:30.084Z,100
2018-04-17T10:18:39.209Z,100
2018-04-17T10:19:48.034Z,100
2018-04-17T10:20:56.881Z,100
2018-04-17T10:22:05.715Z,100
2018-04-17T10:23:14.553Z,100
2018-04-17T10:24:23.394Z,100
2018-04-17T10:25:32.233Z,100
2018-04-17T10:26:41.123Z,100
2018-04-17T10:27:50.073Z,100
2018-04-17T10:28:59.028Z,95
2018-04-17T10:30:08.707Z,100
2018-04-17T10:31:17.648Z,105
2018-04-17T10:32:26.597Z,95
2018-04-17T10:33:35.518Z,95
2018-04-17T10:34:44.472Z,95
2018-04-17T10:35:53.488Z,95
2018-04-17T10:37:02.691Z,95
2018-04-17T10:38:11.714Z,95
2018-04-17T10:39:20.880Z,95
2018-04-17T10:40:29.710Z,90
2018-04-17T10:41:38.532Z,90
2018-04-17T10:42:47.358Z,95
2018-04-17T10:43:56.184Z,95
2018-04-17T10:45:05.013Z,95
2018-04-17T10:46:13.833Z,105
2018-04-17T10:47:22.657Z,100
2018-04-17T10:48:31.475Z,95
2018-04-17T10:49:40.305Z,95
2018-04-17T10:50:49.135Z,95
2018-04-17T10:51:57.951Z,95
2018-04-17T10:53:06.777Z,95
2018-04-17T10:54:15.595Z,95
2018-04-17T10:55:24.422Z,95
2018-04-17T10:56:33.249Z,95
2018-04-17T10:57:42.345Z,90
2018-04-17T10:58:51.221Z,95
2018-04-17T11:00:00.183Z,100
2018-04-17T11:01:09.126Z,100
2018-04-17T11:02:17.981Z,105
2018-04-17T11:03:26.918Z,95
2018-04-17T11:04:36.105Z,100
2018-04-17T11:05:45.043Z,115
2018-04-17T11:06:53.968Z,115
2018-04-17T11:08:02.892Z,100
2018-04-17T11:09:11.713Z,90
2018-04-17T11:10:20.566Z,100
2018-04-17T11:11:29.364Z,90
2018-04-17T11:12:38.199Z,105
2018-04-17T11:13:47.021Z,105
2018-04-17T11:14:55.843Z,100
2018-04-17T11:16:04.667Z,95
2018-04-17T11:17:13.504Z,100
2018-04-17T11:18:22.324Z,100
2018-04-17T11:19:31.152Z,100
2018-04-17T11:20:40.080Z,100
2018-04-17T11:21:48.904Z,100
2018-04-17T11:22:57.727Z,100
2018-04-17T11:24:06.558Z,100
2018-04-17T11:25:15.378Z,100
2018-04-17T11:26:24.213Z,100
2018-04-17T11:27:33.304Z,100
2018-04-17T11:28:42.221Z,100
2018-04-17T11:29:51.043Z,100
2018-04-17T11:30:59.872Z,100
2018-04-17T11:32:08.699Z,95
2018-04-17T11:33:17.548Z,95
2018-04-17T11:34:26.402Z,95
2018-04-17T11:35:35.580Z,95
2018-04-17T11:36:44.506Z,100
2018-04-17T11:37:53.449Z,95
2018-04-17T11:39:02.326Z,95
2018-04-17T11:40:11.255Z,95
2018-04-17T11:41:20.430Z,95
2018-04-17T11:42:29.276Z,100
2018-04-17T11:43:38.193Z,90
2018-04-17T11:44:47.459Z,100
2018-04-17T11:45:56.288Z,95
2018-04-17T11:47:05.154Z,100
2018-04-17T11:48:14.096Z,60
2018-04-17T11:49:23.006Z,60
2018-04-17T11:50:31.935Z,80
2018-04-17T11:51:40.809Z,90
2018-04-17T11:52:50.161Z,100
2018-04-17T11:55:29.075Z,100
2018-04-17T11:56:37.970Z,110
2018-04-17T11:57:46.801Z,115
2018-04-17T11:58:55.633Z,110
2018-04-17T12:00:04.481Z,75
2018-04-17T12:01:13.291Z,70
2018-04-17T12:02:22.167Z,75
2018-04-17T12:03:30.973Z,100
2018-04-17T12:04:40.067Z,105
2018-04-17T12:05:48.907Z,75
2018-04-17T12:06:57.729Z,95
2018-04-17T12:08:06.560Z,65
2018-04-17T12:09:15.382Z,90
2018-04-17T12:10:24.222Z,70
2018-04-17T12:11:33.051Z,80
2018-04-17T12:12:41.876Z,105
2018-04-17T12:13:50.971Z,105
2018-04-17T12:14:59.802Z,115
2018-04-17T12:16:08.636Z,140
2018-04-17T12:17:17.464Z,155
2018-04-17T12:18:26.292Z,115
2018-04-17T12:19:35.121Z,100
2018-04-17T12:20:43.948Z,105
2018-04-17T12:21:52.775Z,95
2018-04-17T12:23:01.609Z,100
2018-04-17T12:24:10.431Z,130
2018-04-17T12:25:19.256Z,80
2018-04-17T12:26:28.355Z,70
2018-04-17T12:27:37.189Z,105
2018-04-17T12:28:46.007Z,85
2018-04-17T12:29:54.847Z,85
2018-04-17T12:31:03.676Z,90
2018-04-17T12:32:12.507Z,100
2018-04-17T12:33:21.328Z,125
2018-04-17T12:34:30.197Z,120
2018-04-17T12:35:39.259Z,115
2018-04-17T12:36:48.096Z,110
2018-04-17T12:37:57.454Z,110
2018-04-17T12:39:06.286Z,115
2018-04-17T12:40:15.377Z,135
2018-04-17T12:41:24.204Z,145
2018-04-17T12:42:33.308Z,155
2018-04-17T12:43:42.142Z,150
2018-04-17T12:44:50.965Z,135
2018-04-17T12:45:59.790Z,120
2018-04-17T12:47:08.620Z,135
2018-04-17T12:48:17.451Z,140
2018-04-17T12:49:26.557Z,145
2018-04-17T12:50:35.379Z,150
2018-04-17T12:51:44.210Z,145
2018-04-17T12:52:53.040Z,120
2018-04-17T12:54:01.865Z,105
2018-04-17T12:55:10.689Z,100
2018-04-17T12:56:19.521Z,95
2018-04-17T12:57:28.352Z,95
2018-04-17T12:58:37.180Z,100
2018-04-17T12:59:46.020Z,105
2018-04-17T13:00:55.375Z,135
2018-04-17T13:02:04.205Z,155
2018-04-17T13:03:13.043Z,160
2018-04-17T13:04:21.871Z,160
2018-04-17T13:05:30.968Z,155
2018-04-17T13:06:39.796Z,135
2018-04-17T13:07:48.706Z,135
2018-04-17T13:08:57.568Z,155
2018-04-17T13:10:06.396Z,155
2018-04-17T13:11:15.295Z,150
2018-04-17T13:12:24.124Z,150
2018-04-17T13:13:32.961Z,135
2018-04-17T13:14:41.813Z,125
2018-04-17T13:15:50.753Z,120
2018-04-17T13:16:59.703Z,100
2018-04-17T13:18:08.590Z,95
2018-04-17T13:19:17.427Z,95
2018-04-17T13:20:26.336Z,95
2018-04-17T13:21:35.595Z,95
2018-04-17T13:22:45.058Z,95
2018-04-17T13:23:54.205Z,95
2018-04-17T13:25:03.032Z,95
2018-04-17T13:26:11.860Z,100
2018-04-17T13:27:20.697Z,105
2018-04-17T13:28:29.521Z,115
2018-04-17T13:29:38.524Z,110
2018-04-17T13:30:47.776Z,115
2018-04-17T13:31:56.681Z,110
2018-04-17T13:33:05.513Z,100
2018-04-17T13:34:14.339Z,95
2018-04-17T13:35:24.237Z,95
2018-04-17T13:36:33.077Z,95
2018-04-17T13:37:42.390Z,95
2018-04-17T13:38:51.327Z,95
2018-04-17T13:40:00.212Z,100
2018-04-17T13:41:09.385Z,95
2018-04-17T13:42:18.693Z,80
2018-04-17T13:43:27.540Z,85
2018-04-17T13:44:36.746Z,60
2018-04-17T13:45:46.006Z,55
2018-04-17T13:46:54.921Z,85
2018-04-17T13:48:03.746Z,60
2018-04-17T13:49:12.575Z,65
2018-04-17T13:50:21.398Z,95
2018-04-17T13:51:30.226Z,90
2018-04-17T13:52:39.058Z,100
2018-04-17T13:53:47.887Z,100
2018-04-17T13:54:56.729Z,100
2018-04-17T13:56:05.546Z,95
2018-04-17T13:57:14.383Z,115
2018-04-17T13:58:23.206Z,100
2018-04-17T13:59:32.037Z,95
2018-04-17T14:00:40.858Z,120
2018-04-17T14:01:49.694Z,130
2018-04-17T14:02:58.529Z,125
2018-04-17T14:04:07.621Z,90
2018-04-17T14:05:16.444Z,105
2018-04-17T14:06:25.273Z,105
2018-04-17T14:07:34.106Z,100
2018-04-17T14:08:42.941Z,100
2018-04-17T14:09:51.793Z,85
2018-04-17T14:11:01.131Z,100
2018-04-17T14:12:10.225Z,100
2018-04-17T14:13:19.056Z,100
2018-04-17T14:14:28.024Z,95
2018-04-17T14:15:36.854Z,95
2018-04-17T14:16:45.677Z,95
2018-04-17T14:17:54.561Z,70
2018-04-17T14:19:03.530Z,75
2018-04-17T14:20:12.739Z,95
2018-04-17T14:21:21.713Z,95
2018-04-17T14:22:30.810Z,95
2018-04-17T14:23:39.644Z,95
2018-04-17T14:24:48.470Z,95
2018-04-17T14:25:57.297Z,95
2018-04-17T14:27:06.508Z,95
2018-04-17T14:28:15.344Z,90
2018-04-17T14:29:24.180Z,95
2018-04-17T14:30:33.014Z,90
2018-04-17T14:31:41.847Z,60
2018-04-17T14:32:50.934Z,60
2018-04-17T14:33:59.773Z,65
2018-04-17T14:35:08.598Z,55
2018-04-17T14:36:17.428Z,55
2018-04-17T14:37:26.263Z,55
2018-04-17T14:38:35.136Z,60
2018-04-17T14:39:44.068Z,65
2018-04-17T14:40:53.009Z,60
2018-04-17T14:42:02.503Z,60
2018-04-17T14:43:11.397Z,65
2018-04-17T14:44:20.564Z,85
2018-04-17T14:45:29.433Z,65
2018-04-17T14:46:38.665Z,60
2018-04-17T14:47:47.762Z,65
2018-04-17T14:48:56.588Z,55
2018-04-17T14:50:05.696Z,55
2018-04-17T14:51:14.532Z,55
2018-04-17T14:52:23.357Z,80
2018-04-17T14:53:32.187Z,80
2018-04-17T14:54:41.008Z,80
2018-04-17T14:55:50.108Z,80
2018-04-17T14:56:59.206Z,50
2018-04-17T14:58:08.094Z,65
2018-04-17T14:59:17.135Z,75
2018-04-17T15:00:25.967Z,70
2018-04-17T15:01:34.793Z,80
2018-04-17T15:02:43.630Z,80
2018-04-17T15:03:52.449Z,75
2018-04-17T15:05:01.282Z,75
2018-04-17T15:06:10.108Z,80
2018-04-17T15:07:19.211Z,75
2018-04-17T15:08:28.044Z,75
2018-04-17T15:09:36.866Z,75
2018-04-17T15:10:45.702Z,65
2018-04-17T15:11:54.529Z,55
2018-04-17T15:13:03.363Z,75
2018-04-17T15:14:12.453Z,60
2018-04-17T15:15:21.328Z,45
2018-04-17T15:16:30.529Z,50
2018-04-17T15:17:39.536Z,70
2018-04-17T15:18:48.399Z,55
2018-04-17T15:19:57.221Z,65
2018-04-17T15:21:06.052Z,70
2018-04-17T15:22:14.871Z,70
2018-04-17T15:23:23.712Z,70
2018-04-17T15:24:32.540Z,70
2018-04-17T15:25:41.369Z,70
2018-04-17T15:26:50.198Z,70
2018-04-17T15:27:59.057Z,65
2018-04-17T15:29:07.897Z,65
2018-04-17T15:30:16.728Z,65
2018-04-17T15:31:25.561Z,65
2018-04-17T15:32:34.389Z,65
2018-04-17T15:33:43.485Z,65
2018-04-17T15:34:52.320Z,65
2018-04-17T15:36:01.156Z,65
2018-04-17T15:37:10.090Z,65
2018-04-17T15:38:19.103Z,65
2018-04-17T15:39:27.818Z,65
2018-04-17T15:40:36.918Z,65
2018-04-17T15:41:45.745Z,65
2018-04-17T15:42:54.571Z,60
2018-04-17T15:44:03.409Z,50
2018-04-17T15:45:12.236Z,60
2018-04-17T15:46:21.333Z,55
2018-04-17T15:47:30.164Z,60
2018-04-17T15:48:39.257Z,60
2018-04-17T15:49:48.938Z,60
2018-04-17T15:50:57.777Z,45
2018-04-17T15:52:06.609Z,40
2018-04-17T15:53:15.442Z,40
2018-04-17T15:54:24.258Z,40
2018-04-17T15:55:33.361Z,55
2018-04-17T15:56:42.232Z,55
2018-04-17T15:57:51.065Z,50
2018-04-17T15:58:59.885Z,55
2018-04-17T16:00:08.722Z,55
2018-04-17T16:01:17.545Z,55
2018-04-17T16:02:26.372Z,55
2018-04-17T16:03:35.878Z,60
2018-04-17T16:04:44.694Z,60
2018-04-17T16:05:53.687Z,60
2018-04-17T16:07:02.543Z,60
2018-04-17T16:08:11.744Z,65
2018-04-17T16:09:21.230Z,50
2018-04-17T16:10:30.505Z,50
2018-04-17T16:11:39.396Z,45
2018-04-17T16:12:48.451Z,40
2018-04-17T16:13:58.198Z,45
2018-04-17T16:15:07.473Z,50
2018-04-17T16:16:16.300Z,40
2018-04-17T16:17:25.827Z,35
2018-04-17T16:18:34.668Z,35
2018-04-17T16:19:43.607Z,35
2018-04-17T16:20:52.432Z,30
2018-04-17T16:22:01.256Z,30
2018-04-17T16:23:10.099Z,40
2018-04-17T16:24:18.923Z,40
2018-04-17T16:25:27.764Z,35
2018-04-17T16:26:36.855Z,30
2018-04-17T16:27:45.711Z,30
2018-04-17T16:28:54.827Z,30
2018-04-17T16:30:03.657Z,30
2018-04-17T16:31:13.314Z,30
2018-04-17T16:32:22.545Z,30
2018-04-17T16:33:31.693Z,35
2018-04-17T16:34:41.121Z,30
2018-04-17T16:35:50.279Z,30
2018-04-17T16:36:59.630Z,35
2018-04-17T16:38:08.470Z,35
2018-04-17T16:39:17.972Z,35
2018-04-17T16:40:26.802Z,35
2018-04-17T16:41:35.650Z,35
2018-04-17T16:42:44.750Z,30
2018-04-17T16:43:53.579Z,30
2018-04-17T16:45:02.415Z,30
2018-04-17T16:46:11.231Z,30
2018-04-17T16:47:20.337Z,25
2018-04-17T16:48:29.165Z,25
2018-04-17T16:49:38.272Z,30
2018-04-17T16:50:47.606Z,30
2018-04-17T16:51:56.429Z,30
2018-04-17T16:53:05.301Z,30
2018-04-17T16:54:14.139Z,30
2018-04-17T16:55:22.976Z,25
2018-04-17T16:56:31.796Z,25
2018-04-17T16:57:40.623Z,25
2018-04-17T16:58:49.598Z,25
2018-04-17T16:59:58.971Z,25
2018-04-17T17:01:08.166Z,25
2018-04-17T17:02:17.887Z,25
2018-04-17T17:03:26.797Z,25
2018-04-17T17:04:35.685Z,25
2018-04-17T17:05:44.780Z,20
2018-04-17T17:06:53.762Z,20
2018-04-17T17:08:02.953Z,20
2018-04-17T17:09:12.166Z,20
2018-04-17T17:10:21.260Z,20
2018-04-17T17:11:30.465Z,20
2018-04-17T17:12:39.539Z,20
2018-04-17T17:13:48.991Z,20
2018-04-17T17:14:58.552Z,20
2018-04-17T17:16:07.557Z,20
2018-04-17T17:17:16.541Z,20
2018-04-17T17:18:26.022Z,15
2018-04-17T17:19:35.656Z,15
2018-04-17T17:20:44.831Z,15
2018-04-17T17:21:53.756Z,15
2018-04-17T17:23:02.661Z,15
2018-04-17T17:24:11.887Z,15
2018-04-17T17:25:20.858Z,15
2018-04-17T17:26:30.420Z,15
2018-04-17T17:27:39.747Z,15
2018-04-17T17:28:49.022Z,15
2018-04-17T17:29:58.625Z,15
2018-04-17T17:31:07.550Z,15
2018-04-17T17:32:16.377Z,15
2018-04-17T17:33:25.263Z,10
2018-04-17T17:34:34.442Z,10
2018-04-17T17:35:43.270Z,10
2018-04-17T17:36:52.107Z,10
2018-04-17T17:38:00.935Z,10
2018-04-17T17:39:09.761Z,10
2018-04-17T17:40:18.854Z,10
2018-04-17T17:41:27.687Z,10
2018-04-17T17:42:36.510Z,10
2018-04-17T17:43:45.344Z,10
2018-04-17T17:44:54.164Z,10
2018-04-17T17:46:03.000Z,5
2018-04-17T17:47:12.102Z,5
2018-04-17T17:48:20.944Z,5
2018-04-17T17:49:30.035Z,5
2018-04-17T17:50:38.867Z,5
2018-04-17T17:51:47.697Z,5
2018-04-17T17:52:56.524Z,5
2018-04-17T17:54:05.355Z,5
2018-04-17T17:55:14.193Z,5
2018-04-17T17:56:23.316Z,5
2018-04-17T17:57:32.535Z,5
2018-04-17T17:58:41.357Z,0
2018-04-17T17:59:50.190Z,0
2018-04-17T18:00:59.033Z,0
2018-04-17T18:02:07.870Z,0
2018-04-17T18:03:16.727Z,0
2018-04-17T18:04:25.558Z,0
2018-04-17T18:05:34.409Z,0
2018-04-17T18:06:43.252Z,0
2018-04-17T18:07:52.106Z,0
2018-04-17T18:09:00.936Z,0
2018-04-17T18:10:09.771Z,0
2018-04-17T18:11:18.591Z,0
2018-04-17T18:12:27.421Z,0
2018-04-17T18:13:36.252Z,0
2018-04-17T18:14:45.371Z,0
2018-04-17T18:15:54.219Z,0
2018-04-17T18:17:03.061Z,0
2018-04-17T18:18:11.915Z,0
2018-04-17T18:19:20.754Z,0
2018-04-17T18:20:29.603Z,0
2018-04-17T18:21:38.433Z,0
2018-04-17T18:22:47.292Z,0
2018-04-17T18:23:56.132Z,0
2018-04-17T18:25:04.978Z,0
2018-04-17T18:26:13.812Z,0
2018-04-17T18:27:22.669Z,0
2018-04-17T18:28:31.517Z,0
2018-04-17T18:29:40.625Z,0
2018-04-17T18:30:49.481Z,0
2018-04-17T18:31:58.324Z,0
2018-04-17T18:33:07.172Z,0
2018-04-17T18:34:16.016Z,0
2018-04-17T18:35:25.136Z,0
2018-04-17T18:36:33.986Z,0
2018-04-17T18:37:42.825Z,0
2018-04-17T18:38:51.670Z,0
2018-04-17T18:40:00.532Z,0
2018-04-17T18:41:09.383Z,0
2018-04-17T18:42:18.223Z,0
2018-04-17T18:43:27.072Z,0
2018-04-17T18:44:35.921Z,0
2018-04-17T18:45:44.768Z,0
2018-04-17T18:46:53.673Z,0
2018-04-17T18:48:02.452Z,0
2018-04-17T18:49:11.293Z,0
2018-04-17T18:50:20.136Z,0
2018-04-17T18:51:28.982Z,0
2018-04-17T18:52:38.185Z,0
2018-04-17T18:53:46.948Z,0
2018-04-17T18:54:55.790Z,0
2018-04-17T18:56:04.632Z,0
2018-04-17T18:57:13.479Z,0
2018-04-17T18:58:22.586Z,0
2018-04-17T18:59:31.441Z,0
2018-04-17T19:00:40.342Z,0
2018-04-17T19:01:49.132Z,0
2018-04-17T19:02:57.974Z,0
2018-04-17T19:04:06.820Z,0
2018-04-17T19:05:15.673Z,0
2018-04-17T19:06:24.519Z,0
2018-04-17T19:07:33.635Z,0
2018-04-17T19:08:42.468Z,0
2018-04-17T19:09:51.307Z,0
2018-04-17T19:11:00.136Z,0
2018-04-17T19:12:09.238Z,0
2018-04-17T19:13:18.059Z,0
2018-04-17T19:14:27.187Z,0
2018-04-17T19:15:36.026Z,0
2018-04-17T19:16:45.438Z,0
2018-04-17T19:17:54.609Z,0
2018-04-17T19:19:03.613Z,0
2018-04-17T19:20:12.482Z,0
2018-04-17T19:21:21.821Z,0
2018-04-17T19:22:31.175Z,0
2018-04-17T19:23:40.064Z,0
2018-04-17T19:24:48.997Z,0
2018-04-17T19:25:57.958Z,0
2018-04-17T19:27:07.210Z,0
2018-04-17T19:28:16.206Z,0
2018-04-17T19:29:25.052Z,0
2018-04-17T19:30:33.972Z,0
2018-04-17T19:31:42.803Z,0
2018-04-17T19:32:51.808Z,0
2018-04-17T19:34:00.971Z,0
2018-04-17T19:35:09.854Z,0
2018-04-17T19:36:18.815Z,0
2018-04-17T19:37:27.720Z,0
2018-04-17T19:38:36.630Z,0
2018-04-17T19:39:46.195Z,0
2018-04-17T19:40:55.398Z,0
2018-04-17T19:42:04.638Z,0
2018-04-17T19:43:13.643Z,0
2018-04-17T19:44:22.472Z,0
2018-04-17T19:45:31.500Z,0
2018-04-17T19:46:40.545Z,0
2018-04-17T19:47:49.797Z,0
2018-04-17T19:48:58.927Z,0
2018-04-17T19:50:07.909Z,0
2018-04-17T19:51:16.863Z,0
2018-04-17T19:52:25.763Z,0
2018-04-17T19:53:35.046Z,0
2018-04-17T19:54:43.893Z,0
2018-04-17T19:55:53.110Z,0
2018-04-17T19:57:02.057Z,0
2018-04-17T19:58:10.881Z,0
2018-04-17T19:59:20.217Z,0
2018-04-17T20:00:29.415Z,0
2018-04-17T20:01:38.705Z,0
2018-04-17T20:02:47.655Z,0
2018-04-17T20:03:56.615Z,0
2018-04-17T20:05:06.124Z,0
2018-04-17T20:06:15.012Z,0
2018-04-17T20:07:24.226Z,0
2018-04-17T20:08:33.223Z,0
2018-04-17T20:09:42.095Z,0
2018-04-17T20:10:50.934Z,0
2018-04-17T20:12:00.718Z,0
2018-04-17T20:13:09.945Z,0
2018-04-17T20:14:18.801Z,0
2018-04-17T20:15:27.859Z,0
2018-04-17T20:16:36.817Z,0
2018-04-17T20:17:46.052Z,0
2018-04-17T20:18:55.569Z,0
2018-04-17T20:20:04.838Z,0
2018-04-17T20:21:14.016Z,0
2018-04-17T20:22:23.196Z,0
2018-04-17T20:23:32.497Z,0
2018-04-17T20:24:41.447Z,0
2018-04-17T20:25:50.394Z,0
2018-04-17T20:26:59.679Z,0
2018-04-17T20:28:08.715Z,0
2018-04-17T20:29:17.577Z,0
2018-04-17T20:30:26.445Z,0
2018-04-17T20:31:35.311Z,0
2018-04-17T20:32:44.285Z,0
2018-04-17T20:33:53.454Z,0
2018-04-17T20:35:02.324Z,0
2018-04-17T20:36:11.215Z,0
2018-04-17T20:37:20.353Z,0
2018-04-17T20:38:29.182Z,0
2018-04-17T20:39:38.118Z,0
2018-04-17T20:40:47.699Z,0
2018-04-17T20:41:56.533Z,0
2018-04-17T20:43:05.366Z,0
2018-04-17T20:44:14.575Z,0
2018-04-17T20:45:23.392Z,0
2018-04-17T20:46:32.572Z,0
2018-04-17T20:47:41.398Z,0
2018-04-17T20:48:50.225Z,0
2018-04-17T20:49:59.091Z,0
2018-04-17T20:51:07.915Z,0
2018-04-17T20:52:16.981Z,0
2018-04-17T20:53:26.088Z,0
2018-04-17T20:54:34.912Z,0
2018-04-17T20:55:43.735Z,0
2018-04-17T20:56:52.558Z,0
2018-04-17T20:58:01.387Z,0
2018-04-17T20:59:10.219Z,0
2018-04-17T21:00:19.052Z,0
2018-04-17T21:01:27.894Z,0
2018-04-17T21:02:36.737Z,0
2018-04-17T21:03:45.581Z,0
2018-04-17T21:04:54.432Z,0
2018-04-17T21:06:03.279Z,0
2018-04-17T21:07:12.121Z,0
2018-04-17T21:08:20.967Z,0
2018-04-17T21:09:29.808Z,0
2018-04-17T21:10:38.673Z,0
2018-04-17T21:11:47.497Z,0
2018-04-17T21:12:56.342Z,0
2018-04-17T21:14:05.186Z,0
2018-04-17T21:15:14.036Z,0
2018-04-17T21:16:22.863Z,0
2018-04-17T21:17:32.158Z,0
